Terminal Aerodrome Forecast
Issued by NWS

Home | Current Version | Previous Version | Text Only | Print | Product List | Glossary Off
Versions: 1 2 3 4 5 6 7 8 9 10 11 12 13 14 15 16 17 18 19 20

000
FTUS43 KMPX 231226 AAA
TAFRNH
TAF AMD
KRNH 231226Z 2312/2412 19003KT 5SM -SHSN BR OVC010
      TEMPO 2312/2314 2SM -SN BR BKN007
     FM231400 24005KT P6SM OVC012
     FM232200 28010KT P6SM BKN020
     FM240600 VRB02KT P6SM SCT025=

USA.gov is the U.S. government's official web portal to all federal, state and local government web resources and services.